Time;durP1;ratioP1;P1;durP2;ratioP2;P2;SDS_P1;SDS_P2;PMS_P1;PMS_P2;Temp;Humidity;BMP_temperature;BMP_pressure;BME280_temperature;BME280_humidity;BME280_pressure;Samples;Min_cycle;Max_cycle;Signal;HPM_P1;HPM_P2
2023/10/13 00:01:54;;;;;;;9.70;2.67;;;;;;;;;;5023891;28;20065;-86
2023/10/13 00:04:24;;;;;;;10.10;2.80;;;;;;;;;;5016663;28;20079;-85
2023/10/13 00:06:56;;;;;;;6.05;2.90;;;;;;;;;;5029921;28;20029;-85
2023/10/13 00:09:37;;;;;;;6.03;2.65;;;;;;;;;;5028317;28;20042;-86
2023/10/13 00:12:04;;;;;;;8.50;3.20;;;;;;;;;;5021873;28;20527;-86
2023/10/13 00:14:33;;;;;;;5.47;2.97;;;;;;;;;;5019719;28;20491;-85
2023/10/13 00:17:15;;;;;;;9.48;3.03;;;;;;;;;;5028299;28;20128;-86
2023/10/13 00:19:47;;;;;;;12.00;3.08;;;;;;;;;;5029823;28;20388;-86
2023/10/13 00:22:19;;;;;;;6.40;2.92;;;;;;;;;;5023714;28;20034;-86
2023/10/13 00:24:45;;;;;;;5.35;3.00;;;;;;;;;;5020494;28;20057;-86
2023/10/13 00:27:27;;;;;;;9.07;2.97;;;;;;;;;;5026518;28;20025;-86
2023/10/13 00:30:14;;;;;;;5.38;2.88;;;;;;;;;;5028184;28;20120;-86
2023/10/13 00:32:42;;;;;;;8.70;2.95;;;;;;;;;;5036905;28;20041;-86
2023/10/13 00:35:15;;;;;;;8.57;2.80;;;;;;;;;;5018858;28;20022;-86
2023/10/13 00:37:44;;;;;;;8.40;2.70;;;;;;;;;;5026745;28;20123;-85
2023/10/13 00:41:14;;;;;;;7.75;3.10;;;;;;;;;;5028966;28;20495;-87
2023/10/13 00:45:57;;;;;;;7.03;2.90;;;;;;;;;;5019476;28;20026;-87
2023/10/13 00:48:32;;;;;;;5.43;2.80;;;;;;;;;;5031506;28;20037;-86
2023/10/13 00:51:02;;;;;;;10.75;2.72;;;;;;;;;;5027608;28;20067;-86
2023/10/13 00:53:29;;;;;;;8.52;2.80;;;;;;;;;;5017549;28;20108;-87
2023/10/13 00:55:57;;;;;;;6.30;2.92;;;;;;;;;;5020016;28;20034;-86
2023/10/13 00:58:25;;;;;;;7.43;2.90;;;;;;;;;;5028524;28;20116;-86
2023/10/13 01:00:56;;;;;;;9.77;3.10;;;;;;;;;;5027943;28;20034;-88
2023/10/13 01:03:26;;;;;;;7.38;3.30;;;;;;;;;;5024445;28;20033;-87
2023/10/13 01:05:58;;;;;;;8.90;3.30;;;;;;;;;;5018720;28;20030;-87
2023/10/13 01:08:37;;;;;;;5.45;2.88;;;;;;;;;;5022017;28;20026;-87
2023/10/13 01:11:07;;;;;;;7.80;3.10;;;;;;;;;;5028983;28;20041;-87
2023/10/13 01:13:36;;;;;;;7.65;2.58;;;;;;;;;;5022383;28;20092;-86
2023/10/13 01:16:07;;;;;;;7.97;3.00;;;;;;;;;;5017780;28;20066;-86
2023/10/13 01:18:39;;;;;;;9.55;3.10;;;;;;;;;;5021559;28;20045;-86
2023/10/13 01:21:06;;;;;;;9.10;2.92;;;;;;;;;;5024717;28;20037;-87
2023/10/13 01:23:38;;;;;;;6.90;3.20;;;;;;;;;;4988242;28;20477;-86
2023/10/13 01:26:05;;;;;;;6.25;2.78;;;;;;;;;;5021831;28;20045;-87
2023/10/13 01:28:44;;;;;;;5.72;2.83;;;;;;;;;;5019053;28;20042;-87
2023/10/13 01:31:12;;;;;;;7.10;3.00;;;;;;;;;;5029854;28;20108;-86
2023/10/13 01:33:38;;;;;;;8.82;2.78;;;;;;;;;;5027163;28;20069;-86
2023/10/13 01:36:06;;;;;;;7.13;3.10;;;;;;;;;;5021187;28;20045;-87
2023/10/13 01:38:33;;;;;;;7.20;2.75;;;;;;;;;;5017375;28;20030;-86
2023/10/13 01:40:59;;;;;;;10.98;3.42;;;;;;;;;;5029512;28;20403;-86
2023/10/13 01:43:25;;;;;;;7.03;3.20;;;;;;;;;;5026435;28;20039;-86
2023/10/13 01:45:50;;;;;;;8.95;3.20;;;;;;;;;;5022765;28;20040;-86
2023/10/13 01:48:18;;;;;;;9.18;3.00;;;;;;;;;;5018787;28;20044;-86
2023/10/13 01:50:52;;;;;;;5.47;2.92;;;;;;;;;;5040801;28;20025;-84
2023/10/13 01:53:19;;;;;;;8.00;3.25;;;;;;;;;;5029512;28;20438;-86
2023/10/13 01:55:44;;;;;;;7.20;2.95;;;;;;;;;;5024102;28;20037;-86
2023/10/13 01:58:15;;;;;;;10.50;3.15;;;;;;;;;;5018687;28;20618;-86
2023/10/13 02:00:47;;;;;;;7.78;2.85;;;;;;;;;;5005626;28;20377;-87
2023/10/13 02:03:16;;;;;;;7.03;2.78;;;;;;;;;;5023655;28;20017;-87
2023/10/13 02:05:48;;;;;;;7.60;3.10;;;;;;;;;;5006500;28;20034;-86
2023/10/13 02:08:23;;;;;;;9.20;3.28;;;;;;;;;;5018945;28;20068;-86
2023/10/13 02:10:50;;;;;;;8.70;3.10;;;;;;;;;;5018323;28;20045;-86
2023/10/13 02:13:17;;;;;;;6.20;3.08;;;;;;;;;;5029034;28;20033;-86
2023/10/13 02:15:48;;;;;;;7.95;3.15;;;;;;;;;;5024559;28;20192;-86
2023/10/13 02:18:26;;;;;;;9.45;3.38;;;;;;;;;;5020603;28;20049;-85
2023/10/13 02:21:04;;;;;;;5.93;2.78;;;;;;;;;;5016432;28;20108;-84
2023/10/13 02:23:30;;;;;;;8.98;3.33;;;;;;;;;;5031191;28;20076;-87
2023/10/13 02:26:11;;;;;;;8.13;3.22;;;;;;;;;;5024529;28;20415;-87
2023/10/13 02:28:38;;;;;;;7.93;3.08;;;;;;;;;;5016613;28;20039;-86
2023/10/13 02:31:04;;;;;;;7.65;3.20;;;;;;;;;;5015884;28;20037;-87
2023/10/13 02:33:30;;;;;;;7.15;2.90;;;;;;;;;;5029887;28;20029;-85
2023/10/13 02:36:03;;;;;;;8.45;3.00;;;;;;;;;;5005437;28;20099;-85
2023/10/13 02:41:09;;;;;;;10.25;3.28;;;;;;;;;;5012549;28;20053;-85
2023/10/13 02:43:36;;;;;;;6.40;3.10;;;;;;;;;;5026804;28;20029;-85
2023/10/13 02:46:02;;;;;;;7.05;3.00;;;;;;;;;;5027425;28;20411;-86
2023/10/13 02:48:42;;;;;;;7.80;3.13;;;;;;;;;;5021539;28;20033;-85
2023/10/13 02:51:18;;;;;;;12.65;2.97;;;;;;;;;;5013784;28;20534;-85
2023/10/13 02:53:48;;;;;;;6.75;3.20;;;;;;;;;;5024840;28;20104;-86
2023/10/13 02:56:14;;;;;;;5.57;2.90;;;;;;;;;;5028061;28;20092;-85
2023/10/13 02:58:45;;;;;;;8.60;2.92;;;;;;;;;;5004471;28;20034;-85
2023/10/13 03:01:17;;;;;;;10.05;3.17;;;;;;;;;;5018550;28;20057;-85
2023/10/13 03:03:55;;;;;;;5.80;2.80;;;;;;;;;;5020197;28;20033;-85
2023/10/13 03:06:24;;;;;;;6.13;3.15;;;;;;;;;;5010410;28;20038;-85
2023/10/13 03:08:51;;;;;;;7.95;2.88;;;;;;;;;;5022601;28;20029;-84
2023/10/13 03:11:21;;;;;;;7.88;3.10;;;;;;;;;;5017280;28;20580;-86
2023/10/13 03:13:48;;;;;;;8.00;3.15;;;;;;;;;;5033878;28;20041;-85
2023/10/13 03:16:19;;;;;;;5.70;2.83;;;;;;;;;;5030130;28;20034;-86
2023/10/13 03:19:07;;;;;;;8.20;3.05;;;;;;;;;;5022571;28;20030;-85
2023/10/13 03:21:36;;;;;;;5.82;3.20;;;;;;;;;;5018730;28;20107;-85
2023/10/13 03:24:06;;;;;;;9.82;3.05;;;;;;;;;;5016560;28;20527;-86
2023/10/13 03:26:36;;;;;;;7.97;2.90;;;;;;;;;;5029833;28;20029;-85
2023/10/13 03:29:13;;;;;;;8.98;3.00;;;;;;;;;;5019315;28;20076;-85
2023/10/13 03:31:39;;;;;;;8.60;3.55;;;;;;;;;;5017563;28;20109;-85
2023/10/13 03:34:05;;;;;;;8.38;3.20;;;;;;;;;;5015714;28;20582;-85
2023/10/13 03:39:15;;;;;;;7.05;3.13;;;;;;;;;;5023707;28;20104;-85
2023/10/13 03:41:40;;;;;;;7.45;3.15;;;;;;;;;;5020251;28;20430;-85
2023/10/13 03:44:18;;;;;;;7.65;3.10;;;;;;;;;;5018703;28;20108;-85
2023/10/13 03:46:47;;;;;;;7.28;2.50;;;;;;;;;;5031565;28;20051;-85
2023/10/13 03:49:21;;;;;;;7.45;3.00;;;;;;;;;;5030382;28;20500;-85
2023/10/13 03:51:50;;;;;;;6.78;2.97;;;;;;;;;;5023443;28;20127;-85
2023/10/13 03:54:16;;;;;;;7.53;3.00;;;;;;;;;;5020540;28;20025;-85
2023/10/13 03:56:44;;;;;;;8.82;3.35;;;;;;;;;;5024523;28;20144;-85
2023/10/13 04:04:11;;;;;;;7.93;3.00;;;;;;;;;;5021798;28;20029;-85
2023/10/13 04:17:27;;;;;;;6.60;3.05;;;;;;;;;;5024851;28;20045;-85
2023/10/13 04:25:38;;;;;;;7.43;3.03;;;;;;;;;;5020858;28;20030;-85
2023/10/13 04:36:13;;;;;;;8.55;3.30;;;;;;;;;;5013957;28;20044;-86
2023/10/13 04:38:56;;;;;;;12.80;3.45;;;;;;;;;;5027024;28;20444;-86
2023/10/13 04:41:31;;;;;;;6.80;3.17;;;;;;;;;;5028863;28;20500;-86
2023/10/13 04:49:29;;;;;;;8.55;3.13;;;;;;;;;;5028545;28;20175;-86
2023/10/13 04:51:59;;;;;;;10.85;3.15;;;;;;;;;;5028237;28;20032;-86
2023/10/13 05:46:49;;;;;;;9.68;3.08;;;;;;;;;;5023887;28;20044;-86
2023/10/13 05:52:08;;;;;;;7.97;3.00;;;;;;;;;;5022016;28;20116;-86
2023/10/13 06:30:10;;;;;;;;;;;;;;;;;;5003897;28;20120;-84
2023/10/13 06:32:39;;;;;;;7.78;2.90;;;;;;;;;;5012202;28;19964;-84
2023/10/13 06:35:07;;;;;;;6.03;2.95;;;;;;;;;;5015006;28;20045;-84
2023/10/13 06:37:34;;;;;;;6.85;2.80;;;;;;;;;;5017494;28;20033;-82
2023/10/13 06:40:25;;;;;;;7.85;3.20;;;;;;;;;;5017740;28;20045;-83
2023/10/13 06:42:53;;;;;;;5.78;2.45;;;;;;;;;;5011978;28;20033;-84
2023/10/13 06:45:20;;;;;;;9.25;2.97;;;;;;;;;;5014532;28;20045;-83
2023/10/13 06:47:46;;;;;;;6.95;2.90;;;;;;;;;;5016221;28;20408;-83
2023/10/13 06:50:16;;;;;;;7.15;3.15;;;;;;;;;;5003619;28;20850;-83
2023/10/13 06:52:42;;;;;;;10.43;2.78;;;;;;;;;;5019596;28;20042;-85
2023/10/13 06:55:23;;;;;;;8.73;2.67;;;;;;;;;;5008402;28;20092;-85
2023/10/13 06:57:51;;;;;;;6.22;2.83;;;;;;;;;;5019056;28;20037;-84
2023/10/13 07:00:27;;;;;;;7.65;2.88;;;;;;;;;;5011789;28;20037;-85
2023/10/13 07:02:53;;;;;;;6.30;3.20;;;;;;;;;;5007350;28;20048;-83
2023/10/13 07:05:19;;;;;;;12.82;3.40;;;;;;;;;;5010710;28;20116;-84
2023/10/13 07:07:45;;;;;;;5.07;2.72;;;;;;;;;;5020248;28;20081;-86
2023/10/13 07:10:12;;;;;;;12.45;3.00;;;;;;;;;;5019386;28;20052;-84
2023/10/13 07:12:43;;;;;;;8.00;3.00;;;;;;;;;;5020839;28;20104;-84
2023/10/13 07:17:39;;;;;;;9.57;3.10;;;;;;;;;;5024055;28;20052;-82
2023/10/13 07:20:47;;;;;;;6.63;2.65;;;;;;;;;;5023991;28;20137;-83
2023/10/13 07:23:06;;;;;;;5.88;2.97;;;;;;;;;;5009646;28;20050;-83
2023/10/13 07:25:40;;;;;;;8.93;3.03;;;;;;;;;;5026571;28;20029;-85
2023/10/13 07:28:09;;;;;;;6.68;2.60;;;;;;;;;;5026901;28;20063;-84
2023/10/13 07:31:11;;;;;;;10.25;2.60;;;;;;;;;;5011189;28;20038;-83
2023/10/13 07:33:27;;;;;;;7.78;3.00;;;;;;;;;;5019845;28;20046;-84
2023/10/13 07:36:27;;;;;;;11.82;2.80;;;;;;;;;;5018789;28;20044;-84
2023/10/13 07:41:37;;;;;;;7.75;2.70;;;;;;;;;;5026558;28;20510;-83
2023/10/13 07:44:04;;;;;;;9.40;2.80;;;;;;;;;;5018042;28;20046;-83
2023/10/13 07:46:33;;;;;;;8.00;2.90;;;;;;;;;;5020957;28;20044;-83
2023/10/13 07:49:14;;;;;;;5.78;2.65;;;;;;;;;;5026668;28;20479;-84
2023/10/13 07:51:51;;;;;;;6.32;2.75;;;;;;;;;;5023936;28;20100;-84
2023/10/13 07:54:22;;;;;;;9.85;2.90;;;;;;;;;;5023193;28;20044;-84
2023/10/13 07:56:48;;;;;;;6.47;2.90;;;;;;;;;;5023443;28;20390;-84
2023/10/13 07:59:16;;;;;;;7.82;2.72;;;;;;;;;;5014562;28;20491;-83
2023/10/13 08:01:42;;;;;;;5.70;2.83;;;;;;;;;;5006337;28;20049;-82
2023/10/13 08:04:22;;;;;;;7.72;2.55;;;;;;;;;;5017485;28;20095;-83
2023/10/13 08:06:48;;;;;;;8.85;2.70;;;;;;;;;;5020368;28;20040;-83
2023/10/13 08:09:40;;;;;;;11.43;2.50;;;;;;;;;;5020744;28;20038;-82
2023/10/13 08:12:10;;;;;;;7.07;2.50;;;;;;;;;;5004802;28;20130;-83
2023/10/13 08:14:38;;;;;;;8.18;2.72;;;;;;;;;;5019162;28;20453;-83
2023/10/13 08:17:12;;;;;;;12.00;2.92;;;;;;;;;;5015950;28;20041;-81
2023/10/13 08:19:47;;;;;;;8.07;2.60;;;;;;;;;;5021487;28;20033;-81
2023/10/13 08:27:48;;;;;;;6.65;2.63;;;;;;;;;;5013070;28;20030;-80
2023/10/13 08:30:26;;;;;;;8.85;2.63;;;;;;;;;;5020083;28;20459;-83
2023/10/13 08:32:54;;;;;;;7.82;3.00;;;;;;;;;;5010201;28;20052;-84
2023/10/13 08:37:59;;;;;;;14.73;2.75;;;;;;;;;;5008110;28;20042;-84
2023/10/13 09:09:34;;;;;;;9.48;3.67;;;;;;;;;;5025929;28;20407;-84
2023/10/13 09:12:14;;;;;;;7.65;2.30;;;;;;;;;;5023496;28;20061;-84
2023/10/13 09:14:54;;;;;;;6.13;2.70;;;;;;;;;;5017310;28;20059;-83
2023/10/13 09:19:55;;;;;;;7.07;2.72;;;;;;;;;;5022467;28;20038;-84
2023/10/13 09:22:37;;;;;;;8.93;2.50;;;;;;;;;;5025673;28;20053;-83
2023/10/13 09:25:13;;;;;;;7.22;2.70;;;;;;;;;;5017942;28;20145;-84
2023/10/13 09:27:39;;;;;;;6.10;2.55;;;;;;;;;;5029362;28;20502;-84
2023/10/13 09:30:23;;;;;;;6.47;2.55;;;;;;;;;;5004873;28;20488;-84
2023/10/13 09:33:04;;;;;;;5.78;2.55;;;;;;;;;;5020128;28;20038;-83
2023/10/13 09:35:33;;;;;;;15.30;2.63;;;;;;;;;;5013079;28;20390;-83
2023/10/13 09:38:02;;;;;;;6.40;2.50;;;;;;;;;;5021725;28;20092;-83
2023/10/13 09:40:46;;;;;;;7.10;2.42;;;;;;;;;;5019529;28;20052;-84
2023/10/13 09:43:15;;;;;;;7.28;2.70;;;;;;;;;;4996073;28;20564;-83
2023/10/13 09:46:01;;;;;;;7.43;2.60;;;;;;;;;;5000184;28;20451;-82
2023/10/13 09:48:45;;;;;;;9.45;2.63;;;;;;;;;;5009478;28;20037;-83
2023/10/13 09:51:14;;;;;;;7.13;2.63;;;;;;;;;;5024428;28;20077;-83
2023/10/13 09:53:47;;;;;;;7.95;2.90;;;;;;;;;;5013051;28;20407;-84
2023/10/13 09:56:23;;;;;;;7.57;2.80;;;;;;;;;;5019372;28;20095;-85
2023/10/13 09:59:09;;;;;;;7.18;2.80;;;;;;;;;;5017966;28;20103;-82
2023/10/13 10:01:40;;;;;;;5.78;2.40;;;;;;;;;;5027206;28;20037;-83
2023/10/13 10:04:17;;;;;;;8.77;2.30;;;;;;;;;;5017774;28;20488;-82
2023/10/13 10:07:11;;;;;;;8.63;2.47;;;;;;;;;;5008685;28;20041;-82
2023/10/13 10:09:43;;;;;;;6.97;2.40;;;;;;;;;;4994223;28;20492;-83
2023/10/13 10:12:18;;;;;;;7.22;2.50;;;;;;;;;;5026774;28;20057;-84
2023/10/13 10:14:56;;;;;;;10.38;3.00;;;;;;;;;;5025654;28;20030;-84
2023/10/13 10:17:22;;;;;;;8.75;2.45;;;;;;;;;;5012124;28;20551;-82
2023/10/13 10:19:56;;;;;;;11.18;2.83;;;;;;;;;;5020365;28;20065;-82
2023/10/13 10:22:44;;;;;;;5.30;2.40;;;;;;;;;;4996236;28;20078;-82
2023/10/13 10:25:25;;;;;;;7.90;2.53;;;;;;;;;;5024454;28;20376;-82
2023/10/13 10:28:01;;;;;;;9.40;2.75;;;;;;;;;;5015690;28;20038;-81
2023/10/13 10:30:27;;;;;;;10.48;2.50;;;;;;;;;;5021366;28;20034;-83
2023/10/13 10:32:59;;;;;;;6.65;2.85;;;;;;;;;;5030426;28;20052;-82
2023/10/13 10:35:29;;;;;;;9.18;2.45;;;;;;;;;;5021699;28;20034;-82
2023/10/13 10:40:57;;;;;;;5.03;2.40;;;;;;;;;;5016100;28;20037;-83
2023/10/13 10:43:42;;;;;;;9.63;2.78;;;;;;;;;;5003993;28;20061;-83
2023/10/13 10:46:13;;;;;;;12.32;2.80;;;;;;;;;;5019217;28;20057;-82
2023/10/13 10:48:42;;;;;;;6.15;2.17;;;;;;;;;;5019343;28;20100;-82
2023/10/13 10:51:23;;;;;;;6.90;2.63;;;;;;;;;;5013595;28;20500;-84
2023/10/13 10:53:50;;;;;;;9.43;2.47;;;;;;;;;;5010848;28;20037;-83
2023/10/13 10:58:59;;;;;;;6.93;2.15;;;;;;;;;;5033978;28;20048;-82
2023/10/13 11:01:38;;;;;;;10.02;2.55;;;;;;;;;;5025427;28;20062;-83
2023/10/13 11:04:08;;;;;;;9.38;2.90;;;;;;;;;;5008827;28;20029;-83
2023/10/13 11:06:45;;;;;;;9.93;2.67;;;;;;;;;;5035167;28;20055;-83
2023/10/13 11:11:53;;;;;;;11.93;2.42;;;;;;;;;;5004723;28;20034;-84
2023/10/13 11:14:22;;;;;;;8.25;2.50;;;;;;;;;;5005918;28;20026;-83
2023/10/13 11:16:59;;;;;;;7.22;2.58;;;;;;;;;;5023560;28;20042;-84
2023/10/13 11:19:39;;;;;;;8.82;2.88;;;;;;;;;;5026097;28;20454;-83
2023/10/13 11:22:10;;;;;;;8.68;2.45;;;;;;;;;;5006665;28;20490;-84
2023/10/13 11:24:42;;;;;;;9.30;2.65;;;;;;;;;;5024097;28;20030;-83
2023/10/13 11:27:20;;;;;;;7.38;2.47;;;;;;;;;;5010928;28;20464;-85
2023/10/13 11:29:53;;;;;;;9.38;2.40;;;;;;;;;;5021871;28;20045;-84
2023/10/13 11:32:20;;;;;;;7.93;2.67;;;;;;;;;;5021374;28;20161;-85
2023/10/13 11:34:51;;;;;;;5.88;2.30;;;;;;;;;;5027373;28;20037;-84
2023/10/13 11:37:37;;;;;;;10.57;2.33;;;;;;;;;;5022252;28;20042;-83
2023/10/13 11:40:12;;;;;;;6.63;2.88;;;;;;;;;;5017949;28;20084;-83
2023/10/13 11:42:43;;;;;;;7.43;2.65;;;;;;;;;;5033156;28;20044;-83
2023/10/13 11:45:55;;;;;;;6.85;2.45;;;;;;;;;;5026496;28;20044;-83
2023/10/13 11:48:01;;;;;;;10.65;2.85;;;;;;;;;;5018982;28;20046;-84
2023/10/13 11:50:32;;;;;;;5.63;2.40;;;;;;;;;;5028079;28;20041;-83
2023/10/13 11:52:58;;;;;;;11.25;2.58;;;;;;;;;;5028613;28;20045;-83
2023/10/13 11:55:24;;;;;;;9.80;2.60;;;;;;;;;;5024613;28;20034;-84
2023/10/13 11:57:49;;;;;;;6.90;2.63;;;;;;;;;;5011187;28;20038;-81
2023/10/13 12:00:50;;;;;;;7.30;2.40;;;;;;;;;;5019596;28;20519;-83
2023/10/13 12:06:05;;;;;;;8.88;2.55;;;;;;;;;;5000968;28;20049;-81
2023/10/13 12:08:33;;;;;;;9.98;2.45;;;;;;;;;;5002082;28;20042;-82
2023/10/13 12:11:30;;;;;;;5.85;2.40;;;;;;;;;;5033774;28;20044;-84
2023/10/13 12:13:46;;;;;;;9.05;2.58;;;;;;;;;;5020464;28;20046;-85
2023/10/13 12:16:12;;;;;;;6.00;2.50;;;;;;;;;;5024338;28;20040;-82
2023/10/13 12:18:38;;;;;;;8.20;2.45;;;;;;;;;;5023819;28;20041;-82
2023/10/13 12:21:12;;;;;;;10.98;2.85;;;;;;;;;;5020834;28;20059;-86
2023/10/13 12:23:38;;;;;;;6.18;2.42;;;;;;;;;;5016927;28;20045;-84
2023/10/13 12:26:18;;;;;;;9.65;2.70;;;;;;;;;;5018851;28;20041;-83
2023/10/13 12:28:51;;;;;;;8.77;2.63;;;;;;;;;;5022087;28;20041;-82
2023/10/13 12:31:17;;;;;;;10.82;2.67;;;;;;;;;;5019215;28;20065;-83
2023/10/13 12:33:47;;;;;;;12.68;2.60;;;;;;;;;;5017628;28;20037;-83
2023/10/13 12:52:05;;;;;;;11.07;2.97;;;;;;;;;;5014299;28;20038;-84
2023/10/13 12:54:39;;;;;;;7.72;2.65;;;;;;;;;;5016349;28;20341;-83
2023/10/13 12:57:09;;;;;;;10.45;2.50;;;;;;;;;;5022988;28;20037;-85
2023/10/13 12:59:35;;;;;;;10.43;2.40;;;;;;;;;;5022559;28;20044;-85
2023/10/13 13:02:06;;;;;;;9.30;2.67;;;;;;;;;;5023012;28;20033;-84
2023/10/13 13:04:44;;;;;;;9.80;2.40;;;;;;;;;;5017912;28;20034;-81
2023/10/13 13:07:15;;;;;;;9.70;2.53;;;;;;;;;;5027509;28;20597;-83
2023/10/13 13:09:44;;;;;;;37.22;26.25;;;;;;;;;;5016587;28;20050;-82
2023/10/13 13:12:12;;;;;;;9.45;3.03;;;;;;;;;;5016451;28;20037;-82
2023/10/13 13:14:41;;;;;;;9.93;2.47;;;;;;;;;;5014038;28;20037;-83
2023/10/13 13:17:06;;;;;;;9.85;2.95;;;;;;;;;;5009910;28;20080;-83
2023/10/13 13:19:36;;;;;;;8.32;2.60;;;;;;;;;;5021209;28;20037;-82
2023/10/13 13:22:05;;;;;;;7.85;2.42;;;;;;;;;;5023373;28;20033;-82
2023/10/13 13:24:31;;;;;;;15.20;2.83;;;;;;;;;;5019505;28;20534;-84
2023/10/13 13:27:02;;;;;;;9.07;2.75;;;;;;;;;;5015879;28;20033;-83
2023/10/13 13:29:31;;;;;;;8.15;2.65;;;;;;;;;;5019360;28;20045;-83
2023/10/13 13:31:57;;;;;;;10.30;2.60;;;;;;;;;;5007573;28;20033;-84
2023/10/13 13:34:22;;;;;;;6.95;2.47;;;;;;;;;;5020725;28;20502;-83
2023/10/13 13:36:52;;;;;;;11.48;2.83;;;;;;;;;;5019676;28;20040;-83
2023/10/13 13:39:29;;;;;;;7.60;2.50;;;;;;;;;;5016971;28;20037;-83
2023/10/13 13:41:58;;;;;;;7.90;2.25;;;;;;;;;;5020931;28;20042;-85
2023/10/13 13:44:28;;;;;;;7.47;2.50;;;;;;;;;;5029376;28;20045;-85
2023/10/13 13:46:56;;;;;;;6.22;2.60;;;;;;;;;;5017892;28;20521;-84
2023/10/13 13:49:29;;;;;;;9.02;2.60;;;;;;;;;;5012507;28;20034;-84
2023/10/13 13:51:55;;;;;;;;;;;;;;;;;;5012298;28;20073;-83
2023/10/13 13:54:20;;;;;;;6.18;2.42;;;;;;;;;;5026520;28;19925;-83
2023/10/13 13:56:47;;;;;;;9.32;2.20;;;;;;;;;;5033023;28;20037;-85
2023/10/13 13:59:15;;;;;;;8.32;2.20;;;;;;;;;;4995582;28;20044;-83
2023/10/13 14:01:44;;;;;;;9.50;2.83;;;;;;;;;;4992871;28;20056;-83
2023/10/13 14:04:10;;;;;;;10.68;2.60;;;;;;;;;;5001536;28;20677;-86
2023/10/13 14:06:37;;;;;;;7.63;2.60;;;;;;;;;;5022277;28;20034;-85
2023/10/13 14:09:14;;;;;;;6.55;2.05;;;;;;;;;;5013161;28;20176;-85
2023/10/13 14:14:11;;;;;;;15.27;2.58;;;;;;;;;;5017717;28;20033;-85
2023/10/13 14:16:44;;;;;;;8.18;2.53;;;;;;;;;;5015956;28;20053;-84
2023/10/13 14:19:11;;;;;;;7.65;2.30;;;;;;;;;;5015365;28;20073;-85
2023/10/13 14:21:37;;;;;;;8.85;2.20;;;;;;;;;;5009026;28;20475;-84
2023/10/13 14:24:12;;;;;;;8.48;2.65;;;;;;;;;;5022739;28;20553;-85
2023/10/13 14:26:38;;;;;;;15.18;2.35;;;;;;;;;;5018897;28;20096;-85
2023/10/13 14:29:26;;;;;;;11.77;2.20;;;;;;;;;;5015210;28;20103;-85
2023/10/13 14:31:50;;;;;;;11.13;2.47;;;;;;;;;;5006911;28;20077;-85
2023/10/13 14:34:15;;;;;;;8.13;2.35;;;;;;;;;;5010551;28;20061;-84
2023/10/13 14:36:41;;;;;;;9.20;2.35;;;;;;;;;;5020931;28;20029;-86
2023/10/13 14:39:09;;;;;;;11.07;2.58;;;;;;;;;;5018065;28;20033;-83
2023/10/13 14:41:38;;;;;;;8.25;2.45;;;;;;;;;;5013182;28;20045;-86
2023/10/13 14:44:07;;;;;;;11.35;2.60;;;;;;;;;;5005551;28;20029;-84
2023/10/13 14:46:38;;;;;;;7.80;2.17;;;;;;;;;;5021218;28;20116;-84
2023/10/13 14:49:04;;;;;;;8.32;2.30;;;;;;;;;;5008007;28;20599;-85
2023/10/13 14:51:31;;;;;;;10.02;2.38;;;;;;;;;;5018575;28;20062;-85
2023/10/13 14:54:03;;;;;;;14.27;2.78;;;;;;;;;;4999761;28;20051;-87
2023/10/13 14:56:29;;;;;;;18.67;3.33;;;;;;;;;;5006293;28;20049;-85
2023/10/13 14:58:55;;;;;;;32.40;3.08;;;;;;;;;;5021203;28;20037;-84
2023/10/13 15:01:24;;;;;;;35.00;3.05;;;;;;;;;;5002025;28;20045;-85
2023/10/13 15:03:56;;;;;;;14.82;3.00;;;;;;;;;;5017436;28;20065;-85
2023/10/13 15:06:24;;;;;;;13.70;2.20;;;;;;;;;;5005520;28;20158;-84
2023/10/13 15:08:54;;;;;;;10.68;2.85;;;;;;;;;;5018106;28;20097;-83
2023/10/13 15:11:20;;;;;;;12.18;4.00;;;;;;;;;;5020770;28;20089;-82
2023/10/13 15:13:50;;;;;;;13.60;3.53;;;;;;;;;;5019339;28;20037;-85
2023/10/13 15:16:18;;;;;;;10.35;3.03;;;;;;;;;;5017216;28;20044;-81
2023/10/13 15:18:52;;;;;;;7.45;2.38;;;;;;;;;;5017895;28;20125;-82
2023/10/13 15:21:34;;;;;;;12.82;2.63;;;;;;;;;;5014182;28;20042;-82
2023/10/13 15:24:03;;;;;;;5.68;2.17;;;;;;;;;;5014169;28;20034;-82
2023/10/13 15:26:37;;;;;;;8.02;2.40;;;;;;;;;;5014608;28;20048;-82
2023/10/13 15:29:09;;;;;;;8.73;2.03;;;;;;;;;;5014344;28;20042;-83
2023/10/13 15:34:12;;;;;;;8.20;2.55;;;;;;;;;;5016686;28;20107;-85
2023/10/13 15:36:39;;;;;;;10.60;2.60;;;;;;;;;;5009941;28;20041;-85
2023/10/13 15:39:09;;;;;;;8.18;4.22;;;;;;;;;;5021869;28;20419;-84
2023/10/13 15:41:37;;;;;;;6.60;3.00;;;;;;;;;;5017078;28;20049;-84
2023/10/13 15:44:09;;;;;;;8.55;2.53;;;;;;;;;;5024008;28;20072;-84
2023/10/13 15:46:35;;;;;;;9.13;2.10;;;;;;;;;;5013840;28;20061;-84
2023/10/13 15:49:02;;;;;;;12.75;2.10;;;;;;;;;;5024359;28;20125;-84
2023/10/13 15:51:29;;;;;;;12.13;2.42;;;;;;;;;;5017776;28;20033;-83
2023/10/13 15:53:55;;;;;;;8.40;2.42;;;;;;;;;;5026210;28;20037;-83
2023/10/13 15:56:21;;;;;;;7.45;2.50;;;;;;;;;;5021683;28;20041;-84
2023/10/13 15:58:47;;;;;;;10.40;2.60;;;;;;;;;;5007322;28;20038;-84
2023/10/13 16:01:13;;;;;;;12.63;2.60;;;;;;;;;;5015858;28;20045;-85
2023/10/13 16:03:43;;;;;;;10.63;2.80;;;;;;;;;;5017286;28;20411;-85
2023/10/13 16:06:13;;;;;;;16.42;2.80;;;;;;;;;;5019695;28;20034;-83
2023/10/13 16:08:42;;;;;;;20.40;3.13;;;;;;;;;;5015342;28;20145;-84
2023/10/13 16:11:13;;;;;;;22.25;3.25;;;;;;;;;;5017429;28;20089;-87
2023/10/13 16:13:39;;;;;;;23.50;3.45;;;;;;;;;;5017846;28;20041;-84
2023/10/13 16:16:05;;;;;;;21.08;3.13;;;;;;;;;;5025672;28;20033;-85
2023/10/13 16:18:35;;;;;;;16.73;2.92;;;;;;;;;;5026260;28;20048;-84
2023/10/13 16:21:03;;;;;;;13.30;2.80;;;;;;;;;;5031554;28;20044;-86
2023/10/13 16:23:32;;;;;;;15.63;2.80;;;;;;;;;;5020218;28;20034;-84
2023/10/13 16:26:01;;;;;;;11.18;2.40;;;;;;;;;;5016740;28;20549;-83
2023/10/13 16:28:27;;;;;;;6.88;2.47;;;;;;;;;;5029236;28;20045;-84
2023/10/13 16:30:55;;;;;;;13.60;3.20;;;;;;;;;;5027489;28;20037;-83
2023/10/13 16:33:22;;;;;;;6.70;2.90;;;;;;;;;;5019457;28;20063;-83
2023/10/13 16:35:48;;;;;;;9.93;2.80;;;;;;;;;;5021540;28;20029;-83
2023/10/13 16:38:14;;;;;;;10.35;2.60;;;;;;;;;;5007011;28;20062;-84
2023/10/13 16:40:39;;;;;;;8.80;2.83;;;;;;;;;;5010326;28;20113;-84
2023/10/13 16:43:07;;;;;;;9.70;2.58;;;;;;;;;;5022906;28;20034;-83
2023/10/13 16:45:36;;;;;;;13.77;2.75;;;;;;;;;;5017645;28;20500;-83
2023/10/13 16:48:02;;;;;;;7.95;2.42;;;;;;;;;;5019670;28;20045;-82
2023/10/13 16:50:28;;;;;;;10.70;2.80;;;;;;;;;;5010175;28;20102;-86
2023/10/13 16:52:56;;;;;;;10.95;2.90;;;;;;;;;;5031202;28;20072;-86
2023/10/13 16:55:23;;;;;;;10.27;2.70;;;;;;;;;;5041208;23;20049;-88
2023/10/13 16:57:52;;;;;;;8.07;3.13;;;;;;;;;;5033113;28;20550;-87
2023/10/13 17:00:25;;;;;;;7.18;2.38;;;;;;;;;;5032367;28;20033;-88
2023/10/13 17:02:52;;;;;;;7.90;2.83;;;;;;;;;;5042515;28;20041;-89
2023/10/13 17:05:18;;;;;;;9.70;2.65;;;;;;;;;;5046005;28;20276;-89
2023/10/13 17:07:46;;;;;;;8.27;2.38;;;;;;;;;;5026451;28;20503;-89
2023/10/13 17:10:14;;;;;;;11.73;3.63;;;;;;;;;;5032314;28;20028;-90
2023/10/13 17:12:43;;;;;;;9.73;3.17;;;;;;;;;;5032122;28;20087;-90
2023/10/13 17:15:19;;;;;;;9.73;2.88;;;;;;;;;;5032103;28;20482;-89
2023/10/13 17:17:49;;;;;;;6.43;2.58;;;;;;;;;;5032576;28;20545;-89
2023/10/13 17:20:17;;;;;;;9.55;2.75;;;;;;;;;;5046300;28;20098;-90
2023/10/13 17:22:44;;;;;;;9.18;2.63;;;;;;;;;;5031992;28;20064;-89
2023/10/13 17:25:12;;;;;;;8.90;2.90;;;;;;;;;;5032188;28;20025;-89
2023/10/13 17:27:41;;;;;;;8.95;2.75;;;;;;;;;;5027992;28;20044;-89
2023/10/13 17:30:09;;;;;;;9.68;2.70;;;;;;;;;;5029164;28;20021;-89
2023/10/13 17:32:38;;;;;;;10.52;2.97;;;;;;;;;;5046378;28;20042;-90
2023/10/13 17:35:05;;;;;;;7.78;2.60;;;;;;;;;;5030931;28;20035;-89
2023/10/13 17:37:33;;;;;;;10.20;2.63;;;;;;;;;;5030297;28;20026;-88
2023/10/13 17:40:00;;;;;;;6.35;2.67;;;;;;;;;;5025660;28;20041;-92
2023/10/13 17:42:27;;;;;;;5.57;2.55;;;;;;;;;;5031304;28;20112;-89
2023/10/13 17:44:52;;;;;;;8.50;2.42;;;;;;;;;;5029933;28;20435;-89
2023/10/13 17:47:20;;;;;;;11.80;2.67;;;;;;;;;;5024583;28;20083;-90
2023/10/13 17:49:46;;;;;;;7.25;2.30;;;;;;;;;;5026788;28;20052;-89
2023/10/13 17:52:12;;;;;;;7.78;2.42;;;;;;;;;;5028643;28;20029;-89
2023/10/13 17:54:37;;;;;;;9.15;2.70;;;;;;;;;;5030599;28;20037;-89
2023/10/13 17:57:06;;;;;;;5.93;2.42;;;;;;;;;;5031067;28;20037;-89
2023/10/13 17:59:33;;;;;;;6.28;2.65;;;;;;;;;;5027239;28;20491;-89
2023/10/13 18:02:00;;;;;;;10.65;3.40;;;;;;;;;;5034334;28;20237;-89
2023/10/13 18:04:27;;;;;;;14.38;2.80;;;;;;;;;;5033422;28;20037;-87
2023/10/13 18:06:55;;;;;;;7.85;2.47;;;;;;;;;;5030662;28;20041;-86
2023/10/13 18:09:22;;;;;;;8.98;3.00;;;;;;;;;;5029398;28;20048;-87
2023/10/13 18:11:47;;;;;;;7.72;3.03;;;;;;;;;;5024985;28;20077;-88
2023/10/13 18:14:15;;;;;;;9.13;3.08;;;;;;;;;;5033506;28;20048;-87
2023/10/13 18:16:41;;;;;;;7.45;3.00;;;;;;;;;;5032073;28;20045;-87
2023/10/13 18:19:07;;;;;;;9.80;3.13;;;;;;;;;;5031280;28;20063;-88
2023/10/13 18:21:36;;;;;;;8.20;3.00;;;;;;;;;;5017363;28;20052;-88
2023/10/13 18:24:03;;;;;;;8.18;3.00;;;;;;;;;;5029784;28;20049;-87
2023/10/13 18:26:29;;;;;;;6.68;2.97;;;;;;;;;;5033761;28;20033;-87
2023/10/13 18:28:54;;;;;;;12.25;2.97;;;;;;;;;;5031624;28;20487;-87
2023/10/13 18:31:21;;;;;;;9.63;2.72;;;;;;;;;;5030133;28;20040;-87
2023/10/13 18:33:46;;;;;;;7.45;2.53;;;;;;;;;;5026028;28;20056;-87